createdAt,value
2018-07-03T00:00:03.769Z,1012.00
2018-07-03T00:01:03.705Z,1012.04
2018-07-03T00:02:03.682Z,1012.04
2018-07-03T00:03:03.678Z,1012.05
2018-07-03T00:04:03.625Z,1012.05
2018-07-03T00:05:03.605Z,1012.09
2018-07-03T00:06:03.598Z,1012.06
2018-07-03T00:07:03.555Z,1012.11
2018-07-03T00:08:03.527Z,1012.13
2018-07-03T00:09:03.504Z,1012.15
2018-07-03T00:10:03.489Z,1012.10
2018-07-03T00:11:03.470Z,1012.09
2018-07-03T00:12:03.468Z,1012.13
2018-07-03T00:13:03.467Z,1012.07
2018-07-03T00:14:03.381Z,1012.09
2018-07-03T00:15:03.365Z,1012.10
2018-07-03T00:16:03.375Z,1012.11
2018-07-03T00:17:03.306Z,1012.14
2018-07-03T00:18:03.277Z,1012.13
2018-07-03T00:19:03.293Z,1012.13
2018-07-03T00:20:03.232Z,1012.11
2018-07-03T00:21:03.211Z,1012.11
2018-07-03T00:22:03.188Z,1012.07
2018-07-03T00:23:03.165Z,1012.11
2018-07-03T00:24:03.130Z,1012.07
2018-07-03T00:25:03.114Z,1012.06
2018-07-03T00:26:03.108Z,1012.04
2018-07-03T00:27:03.068Z,1012.07
2018-07-03T00:28:03.042Z,1012.00
2018-07-03T00:29:03.033Z,1012.02
2018-07-03T00:30:02.975Z,1011.99
2018-07-03T00:31:02.964Z,1011.97
2018-07-03T00:32:02.940Z,1011.96
2018-07-03T00:33:02.910Z,1011.96
2018-07-03T00:34:02.913Z,1011.94
2018-07-03T00:35:02.856Z,1011.94
2018-07-03T00:36:02.838Z,1011.93
2018-07-03T00:37:02.802Z,1011.94
2018-07-03T00:38:02.791Z,1011.97
2018-07-03T00:39:02.788Z,1011.95
2018-07-03T00:40:02.746Z,1011.98
2018-07-03T00:41:02.709Z,1011.97
2018-07-03T00:42:02.682Z,1011.92
2018-07-03T00:43:02.657Z,1011.98
2018-07-03T00:44:02.638Z,1011.96
2018-07-03T00:45:02.620Z,1011.95
2018-07-03T00:46:02.585Z,1011.96
2018-07-03T00:47:02.560Z,1011.95
2018-07-03T00:48:02.532Z,1011.98
2018-07-03T00:49:02.502Z,1011.99
2018-07-03T00:50:02.478Z,1012.00
2018-07-03T00:51:02.456Z,1011.98
2018-07-03T00:52:02.436Z,1011.98
2018-07-03T00:53:02.407Z,1011.94
2018-07-03T00:54:02.375Z,1011.95
2018-07-03T00:55:02.360Z,1011.96
2018-07-03T00:56:02.331Z,1011.93
2018-07-03T00:57:02.322Z,1011.93
2018-07-03T00:58:02.283Z,1011.95
2018-07-03T00:59:02.265Z,1011.92
2018-07-03T01:00:02.233Z,1011.95
2018-07-03T01:01:02.213Z,1011.90
2018-07-03T01:02:02.177Z,1011.97
2018-07-03T01:03:02.153Z,1011.93
2018-07-03T01:04:02.133Z,1011.95
2018-07-03T01:05:02.096Z,1011.93
2018-07-03T01:06:02.081Z,1011.92
2018-07-03T01:07:02.075Z,1011.90
2018-07-03T01:08:02.035Z,1011.92
2018-07-03T01:09:02.004Z,1011.91
2018-07-03T01:10:01.995Z,1011.92
2018-07-03T01:11:01.955Z,1011.92
2018-07-03T01:12:01.923Z,1011.90
2018-07-03T01:13:01.917Z,1011.95
2018-07-03T01:14:01.910Z,1011.94
2018-07-03T01:15:01.853Z,1011.97
2018-07-03T01:16:01.826Z,1011.94
2018-07-03T01:17:01.838Z,1011.92
2018-07-03T01:18:01.765Z,1011.90
2018-07-03T01:19:01.755Z,1011.89
2018-07-03T01:20:01.770Z,1011.90
2018-07-03T01:21:01.711Z,1011.89
2018-07-03T01:22:01.687Z,1011.93
2018-07-03T01:23:01.669Z,1011.90
2018-07-03T01:24:01.714Z,1011.90
2018-07-03T01:25:01.590Z,1011.89
2018-07-03T01:26:01.578Z,1011.88
2018-07-03T01:27:01.548Z,1011.91
2018-07-03T01:28:01.518Z,1011.90
2018-07-03T01:29:01.516Z,1011.90
2018-07-03T01:30:01.461Z,1011.90
2018-07-03T01:31:01.437Z,1011.91
2018-07-03T01:32:01.448Z,1011.90
2018-07-03T01:33:01.399Z,1011.97
2018-07-03T01:34:01.367Z,1011.90
2018-07-03T01:35:01.346Z,1011.92
2018-07-03T01:36:01.328Z,1011.93
2018-07-03T01:37:01.279Z,1011.91
2018-07-03T01:38:01.273Z,1011.93
2018-07-03T01:39:01.234Z,1011.93
2018-07-03T01:40:01.215Z,1011.94
2018-07-03T01:41:01.203Z,1011.95
2018-07-03T01:42:01.167Z,1011.92
2018-07-03T01:43:01.135Z,1011.91
2018-07-03T01:44:01.110Z,1011.98
2018-07-03T01:45:01.092Z,1011.94
2018-07-03T01:46:01.058Z,1011.96
2018-07-03T01:47:01.034Z,1011.94
2018-07-03T01:48:01.007Z,1011.94
2018-07-03T01:49:00.971Z,1011.95
2018-07-03T01:50:00.951Z,1011.94
2018-07-03T01:51:00.928Z,1011.92
2018-07-03T01:52:00.895Z,1011.93
2018-07-03T01:53:00.884Z,1011.87
2018-07-03T01:54:00.852Z,1011.88
2018-07-03T01:55:00.825Z,1011.88
2018-07-03T01:56:00.796Z,1011.87
2018-07-03T01:57:00.777Z,1011.87
2018-07-03T01:58:00.751Z,1011.89
2018-07-03T01:59:00.717Z,1011.86
2018-07-03T02:00:00.687Z,1011.88
2018-07-03T02:01:00.662Z,1011.93
2018-07-03T02:02:00.631Z,1011.92
2018-07-03T02:03:00.615Z,1011.94
2018-07-03T02:04:00.593Z,1011.91
2018-07-03T02:05:00.566Z,1011.94
2018-07-03T02:06:00.537Z,1011.95
2018-07-03T02:07:00.513Z,1011.91
2018-07-03T02:08:00.498Z,1011.91
2018-07-03T02:09:00.451Z,1011.93
2018-07-03T02:10:00.453Z,1011.93
2018-07-03T02:11:00.433Z,1011.88
2018-07-03T02:12:00.387Z,1011.89
2018-07-03T02:13:00.368Z,1011.91
2018-07-03T02:14:00.336Z,1011.94
2018-07-03T02:15:00.297Z,1011.93
2018-07-03T02:16:00.295Z,1011.88
2018-07-03T02:17:00.262Z,1011.91
2018-07-03T02:18:00.229Z,1011.86
2018-07-03T02:19:00.203Z,1011.86
2018-07-03T02:20:00.179Z,1011.87
2018-07-03T02:21:00.140Z,1011.82
2018-07-03T02:22:00.176Z,1011.84
2018-07-03T02:23:00.101Z,1011.78
2018-07-03T02:24:00.075Z,1011.81
2018-07-03T02:25:00.064Z,1011.84
2018-07-03T02:26:00.027Z,1011.86
2018-07-03T02:26:59.991Z,1011.87
2018-07-03T02:27:59.964Z,1011.86
2018-07-03T02:28:59.938Z,1011.87
2018-07-03T02:29:59.919Z,1011.83
2018-07-03T02:30:59.884Z,1011.83
2018-07-03T02:31:59.858Z,1011.88
2018-07-03T02:32:59.827Z,1011.82
2018-07-03T02:33:59.865Z,1011.80
2018-07-03T02:34:59.784Z,1011.78
2018-07-03T02:35:59.756Z,1011.81
2018-07-03T02:36:59.730Z,1011.82
2018-07-03T02:37:59.740Z,1011.81
2018-07-03T02:38:59.847Z,1011.82
2018-07-03T02:39:59.654Z,1011.87
2018-07-03T02:40:59.636Z,1011.85
2018-07-03T02:41:59.614Z,1011.83
2018-07-03T02:42:59.569Z,1011.84
2018-07-03T02:43:59.569Z,1011.84
2018-07-03T02:44:59.535Z,1011.84
2018-07-03T02:45:59.492Z,1011.87
2018-07-03T02:46:59.487Z,1011.88
2018-07-03T02:47:59.455Z,1011.85
2018-07-03T02:48:59.422Z,1011.86
2018-07-03T02:49:59.469Z,1011.85
2018-07-03T02:50:59.369Z,1011.84
2018-07-03T02:51:59.340Z,1011.81
2018-07-03T02:52:59.317Z,1011.84
2018-07-03T02:53:59.283Z,1011.80
2018-07-03T02:54:59.293Z,1011.80
2018-07-03T02:55:59.253Z,1011.84
2018-07-03T02:56:59.220Z,1011.82
2018-07-03T02:57:59.180Z,1011.78
2018-07-03T02:58:59.186Z,1011.80
2018-07-03T02:59:59.122Z,1011.80
2018-07-03T03:00:59.134Z,1011.81
2018-07-03T03:01:59.127Z,1011.80
2018-07-03T03:02:59.096Z,1011.78
2018-07-03T03:03:59.062Z,1011.80
2018-07-03T03:04:59.038Z,1011.80
2018-07-03T03:05:59.021Z,1011.83
2018-07-03T03:06:58.938Z,1011.82
2018-07-03T03:07:58.922Z,1011.80
2018-07-03T03:08:58.890Z,1011.83
2018-07-03T03:09:58.862Z,1011.79
2018-07-03T03:10:58.865Z,1011.81
2018-07-03T03:11:58.807Z,1011.83
2018-07-03T03:12:58.780Z,1011.80
2018-07-03T03:13:58.814Z,1011.81
2018-07-03T03:14:58.727Z,1011.79
2018-07-03T03:15:58.721Z,1011.82
2018-07-03T03:16:58.687Z,1011.75
2018-07-03T03:17:58.653Z,1011.82
2018-07-03T03:18:58.623Z,1011.79
2018-07-03T03:19:58.613Z,1011.78
2018-07-03T03:20:58.573Z,1011.78
2018-07-03T03:21:58.545Z,1011.76
2018-07-03T03:22:58.516Z,1011.78
2018-07-03T03:24:17.329Z,1011.79
2018-07-03T03:26:12.425Z,1011.74
2018-07-03T03:27:12.293Z,1011.76
2018-07-03T03:29:16.224Z,1011.76
2018-07-03T03:30:16.132Z,1011.75
2018-07-03T03:32:21.996Z,1011.76
2018-07-03T03:33:22.010Z,1011.79
2018-07-03T03:35:26.370Z,1011.76
2018-07-03T03:36:26.359Z,1011.76
2018-07-03T03:38:42.842Z,1011.76
2018-07-03T03:39:42.291Z,1011.78
2018-07-03T03:42:07.133Z,1011.77
2018-07-03T03:43:07.040Z,1011.74
2018-07-03T03:45:13.018Z,1011.78
2018-07-03T03:46:12.919Z,1011.79
2018-07-03T03:48:18.982Z,1011.84
2018-07-03T03:49:18.672Z,1011.81
2018-07-03T03:51:21.763Z,1011.85
2018-07-03T03:52:21.481Z,1011.86
2018-07-03T03:54:25.855Z,1011.85
2018-07-03T03:55:25.869Z,1011.82
2018-07-03T03:57:38.701Z,1011.84
2018-07-03T03:58:38.564Z,1011.84
2018-07-03T04:00:57.516Z,1011.90
2018-07-03T04:01:57.420Z,1011.89
2018-07-03T04:04:00.403Z,1011.90
2018-07-03T04:05:00.260Z,1011.90
2018-07-03T04:07:01.841Z,1011.93
2018-07-03T04:08:01.765Z,1011.94
2018-07-03T04:09:01.830Z,1011.95
2018-07-03T04:10:01.697Z,1011.94
2018-07-03T04:11:01.656Z,1011.94
2018-07-03T04:12:01.692Z,1011.94
2018-07-03T04:13:01.602Z,1011.94
2018-07-03T04:14:01.577Z,1011.95
2018-07-03T04:15:01.552Z,1011.96
2018-07-03T04:16:01.528Z,1011.97
2018-07-03T04:17:01.496Z,1011.96
2018-07-03T04:18:01.479Z,1011.96
2018-07-03T04:19:01.450Z,1012.02
2018-07-03T04:20:01.418Z,1012.00
2018-07-03T04:21:01.387Z,1012.03
2018-07-03T04:22:01.364Z,1012.01
2018-07-03T04:23:01.334Z,1012.03
2018-07-03T04:24:01.319Z,1012.01
2018-07-03T04:25:01.296Z,1012.02
2018-07-03T04:26:01.254Z,1012.00
2018-07-03T04:27:01.230Z,1012.04
2018-07-03T04:28:01.223Z,1012.04
2018-07-03T04:29:01.192Z,1012.08
2018-07-03T04:30:01.160Z,1012.08
2018-07-03T04:31:01.134Z,1012.10
2018-07-03T04:32:01.100Z,1012.11
2018-07-03T04:33:01.073Z,1012.09
2018-07-03T04:34:01.138Z,1012.13
2018-07-03T04:35:01.018Z,1012.13
2018-07-03T04:36:00.996Z,1012.10
2018-07-03T04:37:00.973Z,1012.11
2018-07-03T04:38:00.946Z,1012.13
2018-07-03T04:39:00.917Z,1012.16
2018-07-03T04:40:00.892Z,1012.10
2018-07-03T04:41:00.856Z,1012.16
2018-07-03T04:42:00.836Z,1012.14
2018-07-03T04:43:00.866Z,1012.13
2018-07-03T04:44:00.776Z,1012.17
2018-07-03T04:45:00.751Z,1012.13
2018-07-03T04:46:00.728Z,1012.15
2018-07-03T04:47:00.721Z,1012.17
2018-07-03T04:48:00.681Z,1012.11
2018-07-03T04:49:00.650Z,1012.11
2018-07-03T04:50:00.625Z,1012.19
2018-07-03T04:51:00.607Z,1012.16
2018-07-03T04:52:00.582Z,1012.12
2018-07-03T04:53:00.540Z,1012.18
2018-07-03T04:54:00.609Z,1012.17
2018-07-03T04:55:00.493Z,1012.18
2018-07-03T04:56:00.562Z,1012.18
2018-07-03T04:57:00.446Z,1012.23
2018-07-03T04:58:00.409Z,1012.21
2018-07-03T04:59:00.389Z,1012.14
2018-07-03T05:00:00.376Z,1012.17
2018-07-03T05:01:00.338Z,1012.13
2018-07-03T05:02:00.340Z,1012.11
2018-07-03T05:03:00.287Z,1012.14
2018-07-03T05:04:00.255Z,1012.15
2018-07-03T05:05:00.228Z,1012.16
2018-07-03T05:06:00.203Z,1012.18
2018-07-03T05:07:00.272Z,1012.17
2018-07-03T05:08:00.158Z,1012.18
2018-07-03T05:09:00.122Z,1012.17
2018-07-03T05:10:00.124Z,1012.19
2018-07-03T05:11:00.077Z,1012.19
2018-07-03T05:12:00.042Z,1012.22
2018-07-03T05:13:00.029Z,1012.21
2018-07-03T05:13:59.995Z,1012.25
2018-07-03T05:14:59.972Z,1012.20
2018-07-03T05:15:59.938Z,1012.21
2018-07-03T05:16:59.915Z,1012.24
2018-07-03T05:17:59.882Z,1012.28
2018-07-03T05:18:59.862Z,1012.22
2018-07-03T05:19:59.841Z,1012.30
2018-07-03T05:20:59.808Z,1012.31
2018-07-03T05:21:59.784Z,1012.30
2018-07-03T05:22:59.816Z,1012.29
2018-07-03T05:23:59.726Z,1012.32
2018-07-03T05:24:59.705Z,1012.30
2018-07-03T05:25:59.685Z,1012.34
2018-07-03T05:26:59.654Z,1012.35
2018-07-03T05:27:59.636Z,1012.38
2018-07-03T05:28:59.612Z,1012.38
2018-07-03T05:29:59.575Z,1012.36
2018-07-03T05:30:59.542Z,1012.40
2018-07-03T05:31:59.524Z,1012.39
2018-07-03T05:32:59.517Z,1012.36
2018-07-03T05:33:59.517Z,1012.33
2018-07-03T05:34:59.446Z,1012.35
2018-07-03T05:35:59.457Z,1012.34
2018-07-03T05:36:59.389Z,1012.31
2018-07-03T05:37:59.364Z,1012.35
2018-07-03T05:38:59.385Z,1012.35
2018-07-03T05:39:59.319Z,1012.36
2018-07-03T05:40:59.357Z,1012.40
2018-07-03T05:41:59.264Z,1012.38
2018-07-03T05:42:59.290Z,1012.38
2018-07-03T05:43:59.397Z,1012.37
2018-07-03T05:44:59.218Z,1012.35
2018-07-03T05:45:59.246Z,1012.39
2018-07-03T05:46:59.140Z,1012.35
2018-07-03T05:48:01.652Z,1012.40
2018-07-03T05:48:59.092Z,1012.35
2018-07-03T05:49:59.061Z,1012.42
2018-07-03T05:50:59.078Z,1012.44
2018-07-03T05:51:59.012Z,1012.44
2018-07-03T05:52:58.986Z,1012.39
2018-07-03T05:53:58.966Z,1012.45
2018-07-03T05:54:58.932Z,1012.43
2018-07-03T05:55:58.900Z,1012.39
2018-07-03T05:56:58.880Z,1012.45
2018-07-03T05:57:58.847Z,1012.47
2018-07-03T05:58:58.823Z,1012.47
2018-07-03T05:59:58.813Z,1012.45
2018-07-03T06:00:58.774Z,1012.47
2018-07-03T06:01:58.746Z,1012.51
2018-07-03T06:02:58.719Z,1012.50
2018-07-03T06:03:58.721Z,1012.55
2018-07-03T06:04:58.672Z,1012.58
2018-07-03T06:05:58.665Z,1012.53
2018-07-03T06:06:58.652Z,1012.52
2018-07-03T06:07:58.590Z,1012.54
2018-07-03T06:08:58.570Z,1012.57
2018-07-03T06:09:58.690Z,1012.57
2018-07-03T06:10:58.521Z,1012.56
2018-07-03T06:11:58.495Z,1012.53
2018-07-03T06:12:58.560Z,1012.54
2018-07-03T06:13:58.505Z,1012.54
2018-07-03T06:14:58.471Z,1012.58
2018-07-03T06:15:58.451Z,1012.54
2018-07-03T06:16:58.365Z,1012.50
2018-07-03T06:17:58.339Z,1012.54
2018-07-03T06:18:58.321Z,1012.51
2018-07-03T06:19:58.287Z,1012.55
2018-07-03T06:20:58.262Z,1012.49
2018-07-03T06:21:58.242Z,1012.50
2018-07-03T06:22:58.210Z,1012.50
2018-07-03T06:23:58.324Z,1012.50
2018-07-03T06:24:58.428Z,1012.51
2018-07-03T06:25:58.144Z,1012.51
2018-07-03T06:26:58.118Z,1012.48
2018-07-03T06:27:58.096Z,1012.47
2018-07-03T06:28:58.093Z,1012.45
2018-07-03T06:29:58.122Z,1012.40
2018-07-03T06:30:58.042Z,1012.40
2018-07-03T06:31:57.992Z,1012.43
2018-07-03T06:32:57.971Z,1012.39
2018-07-03T06:33:57.956Z,1012.42
2018-07-03T06:34:57.911Z,1012.41
2018-07-03T06:35:57.889Z,1012.40
2018-07-03T06:36:57.918Z,1012.44
2018-07-03T06:37:57.864Z,1012.40
2018-07-03T06:38:57.828Z,1012.38
2018-07-03T06:39:57.799Z,1012.40
2018-07-03T06:40:57.771Z,1012.42
2018-07-03T06:41:57.739Z,1012.40
2018-07-03T06:42:57.741Z,1012.43
2018-07-03T06:43:57.693Z,1012.40
2018-07-03T06:44:57.684Z,1012.39
2018-07-03T06:45:57.646Z,1012.43
2018-07-03T06:46:57.615Z,1012.42
2018-07-03T06:47:57.586Z,1012.44
2018-07-03T06:48:57.556Z,1012.49
2018-07-03T06:49:57.541Z,1012.47
2018-07-03T06:50:57.519Z,1012.50
2018-07-03T06:51:57.487Z,1012.51
2018-07-03T06:52:57.475Z,1012.48
2018-07-03T06:53:57.455Z,1012.56
2018-07-03T06:54:57.425Z,1012.54
2018-07-03T06:55:57.402Z,1012.61
2018-07-03T06:56:57.379Z,1012.56
2018-07-03T06:57:57.429Z,1012.58
2018-07-03T06:58:57.319Z,1012.57
2018-07-03T06:59:57.294Z,1012.58
2018-07-03T07:00:57.323Z,1012.55
2018-07-03T07:01:57.247Z,1012.57
2018-07-03T07:02:57.213Z,1012.58
2018-07-03T07:03:57.213Z,1012.56
2018-07-03T07:04:57.195Z,1012.56
2018-07-03T07:05:57.148Z,1012.52
2018-07-03T07:06:57.125Z,1012.54
2018-07-03T07:07:57.124Z,1012.48
2018-07-03T07:08:57.235Z,1012.45
2018-07-03T07:09:57.051Z,1012.43
2018-07-03T07:10:57.050Z,1012.46
2018-07-03T07:11:56.991Z,1012.42
2018-07-03T07:12:56.973Z,1012.42
2018-07-03T07:13:56.950Z,1012.42
2018-07-03T07:14:56.926Z,1012.40
2018-07-03T07:15:56.911Z,1012.35
2018-07-03T07:16:56.881Z,1012.38
2018-07-03T07:17:56.864Z,1012.42
2018-07-03T07:18:56.830Z,1012.38
2018-07-03T07:19:56.804Z,1012.40
2018-07-03T07:20:56.808Z,1012.35
2018-07-03T07:21:56.754Z,1012.37
2018-07-03T07:22:56.737Z,1012.34
2018-07-03T07:23:56.713Z,1012.36
2018-07-03T07:24:56.678Z,1012.32
2018-07-03T07:25:56.659Z,1012.30
2018-07-03T07:26:56.630Z,1012.33
2018-07-03T07:27:56.619Z,1012.33
2018-07-03T07:28:56.595Z,1012.36
2018-07-03T07:29:56.564Z,1012.33
2018-07-03T07:30:56.547Z,1012.35
2018-07-03T07:31:56.508Z,1012.32
2018-07-03T07:32:56.491Z,1012.33
2018-07-03T07:33:56.472Z,1012.33
2018-07-03T07:34:56.436Z,1012.32
2018-07-03T07:35:56.520Z,1012.35
2018-07-03T07:36:56.395Z,1012.33
2018-07-03T07:37:56.373Z,1012.33
2018-07-03T07:38:56.346Z,1012.31
2018-07-03T07:39:56.335Z,1012.29
2018-07-03T07:40:56.378Z,1012.30
2018-07-03T07:41:56.279Z,1012.26
2018-07-03T07:42:56.269Z,1012.31
2018-07-03T07:43:56.257Z,1012.31
2018-07-03T07:44:56.211Z,1012.30
2018-07-03T07:45:56.296Z,1012.32
2018-07-03T07:46:56.162Z,1012.31
2018-07-03T07:47:56.155Z,1012.29
2018-07-03T07:48:56.118Z,1012.33
2018-07-03T07:49:56.125Z,1012.31
2018-07-03T07:50:56.088Z,1012.31
2018-07-03T07:51:56.049Z,1012.31
2018-07-03T07:52:56.045Z,1012.32
2018-07-03T07:53:55.992Z,1012.32
2018-07-03T07:54:55.993Z,1012.32
2018-07-03T07:55:56.024Z,1012.31
2018-07-03T07:56:55.964Z,1012.28
2018-07-03T07:57:55.898Z,1012.31
2018-07-03T07:58:55.901Z,1012.30
2018-07-03T07:59:55.875Z,1012.31
2018-07-03T08:00:55.854Z,1012.24
2018-07-03T08:01:55.813Z,1012.24
2018-07-03T08:02:55.824Z,1012.24
2018-07-03T08:03:55.765Z,1012.24
2018-07-03T08:04:55.737Z,1012.25
2018-07-03T08:05:55.736Z,1012.20
2018-07-03T08:06:55.725Z,1012.20
2018-07-03T08:07:55.689Z,1012.18
2018-07-03T08:08:55.657Z,1012.15
2018-07-03T08:09:55.651Z,1012.22
2018-07-03T08:10:55.602Z,1012.19
2018-07-03T08:11:55.607Z,1012.23
2018-07-03T08:12:55.591Z,1012.16
2018-07-03T08:13:55.531Z,1012.19
2018-07-03T08:14:55.519Z,1012.22
2018-07-03T08:15:55.504Z,1012.19
2018-07-03T08:16:55.520Z,1012.21
2018-07-03T08:17:55.455Z,1012.21
2018-07-03T08:18:55.421Z,1012.25
2018-07-03T08:19:55.412Z,1012.24
2018-07-03T08:20:55.376Z,1012.23
2018-07-03T08:21:55.444Z,1012.23
2018-07-03T08:22:55.344Z,1012.20
2018-07-03T08:23:55.328Z,1012.21
2018-07-03T08:24:55.302Z,1012.22
2018-07-03T08:25:55.259Z,1012.17
2018-07-03T08:26:55.236Z,1012.18
2018-07-03T08:27:55.214Z,1012.22
2018-07-03T08:28:55.253Z,1012.17
2018-07-03T08:29:55.169Z,1012.18
2018-07-03T08:30:55.154Z,1012.17
2018-07-03T08:31:55.182Z,1012.16
2018-07-03T08:32:55.110Z,1012.19
2018-07-03T08:33:55.129Z,1012.19
2018-07-03T08:34:55.050Z,1012.18
2018-07-03T08:35:55.040Z,1012.18
2018-07-03T08:36:56.686Z,1012.16
2018-07-03T08:37:55.044Z,1012.17
2018-07-03T08:38:54.978Z,1012.20
2018-07-03T08:39:54.945Z,1012.19
2018-07-03T08:40:54.930Z,1012.17
2018-07-03T08:41:54.949Z,1012.19
2018-07-03T08:42:54.894Z,1012.20
2018-07-03T08:43:57.731Z,1012.16
2018-07-03T08:44:54.848Z,1012.16
2018-07-03T08:45:54.809Z,1012.14
2018-07-03T08:46:54.788Z,1012.16
2018-07-03T08:47:54.779Z,1012.18
2018-07-03T08:48:54.787Z,1012.15
2018-07-03T08:49:54.719Z,1012.18
2018-07-03T08:50:54.710Z,1012.15
2018-07-03T08:51:54.734Z,1012.15
2018-07-03T08:52:54.682Z,1012.15
2018-07-03T08:53:54.636Z,1012.13
2018-07-03T08:54:54.612Z,1012.14
2018-07-03T08:55:54.611Z,1012.17
2018-07-03T08:56:54.566Z,1012.17
2018-07-03T08:57:54.574Z,1012.15
2018-07-03T08:58:54.518Z,1012.17
2018-07-03T08:59:54.501Z,1012.15
2018-07-03T09:00:54.498Z,1012.14
2018-07-03T09:01:54.457Z,1012.14
2018-07-03T09:02:54.457Z,1012.15
2018-07-03T09:03:54.443Z,1012.15
2018-07-03T09:04:54.386Z,1012.17
2018-07-03T09:05:54.380Z,1012.19
2018-07-03T09:06:54.343Z,1012.20
2018-07-03T09:07:54.333Z,1012.20
2018-07-03T09:08:54.302Z,1012.16
2018-07-03T09:09:54.333Z,1012.19
2018-07-03T09:11:16.464Z,1012.22
2018-07-03T09:13:07.154Z,1012.21
2018-07-03T09:14:07.136Z,1012.18
2018-07-03T09:16:05.040Z,1012.17
2018-07-03T09:17:04.946Z,1012.14
2018-07-03T09:19:12.839Z,1012.12
2018-07-03T09:20:12.849Z,1012.14
2018-07-03T09:22:25.674Z,1012.18
2018-07-03T09:23:25.669Z,1012.14
2018-07-03T09:25:30.067Z,1012.16
2018-07-03T09:26:30.013Z,1012.13
2018-07-03T09:28:23.482Z,1012.17
2018-07-03T09:29:23.357Z,1012.15
2018-07-03T09:31:36.173Z,1012.14
2018-07-03T09:32:36.237Z,1012.19
2018-07-03T09:34:30.651Z,1012.15
2018-07-03T09:35:30.548Z,1012.13
2018-07-03T09:38:07.593Z,1012.12
2018-07-03T09:39:07.564Z,1012.12
2018-07-03T09:41:11.949Z,1012.09
2018-07-03T09:42:11.966Z,1012.10
2018-07-03T09:44:22.634Z,1012.08
2018-07-03T09:45:22.484Z,1012.06
2018-07-03T09:47:44.514Z,1012.08
2018-07-03T09:48:44.465Z,1012.05
2018-07-03T09:50:49.308Z,1012.02
2018-07-03T09:51:49.197Z,1011.96
2018-07-03T09:52:49.302Z,1011.97
2018-07-03T09:53:49.174Z,1011.92
2018-07-03T09:54:49.187Z,1011.95
2018-07-03T09:55:49.135Z,1011.94
2018-07-03T09:56:49.090Z,1011.94
2018-07-03T09:57:49.092Z,1011.94
2018-07-03T09:58:49.053Z,1011.93
2018-07-03T09:59:49.038Z,1011.98
2018-07-03T10:00:49.009Z,1011.98
2018-07-03T10:01:48.983Z,1011.99
2018-07-03T10:02:48.968Z,1012.00
2018-07-03T10:03:48.946Z,1011.98
2018-07-03T10:04:48.937Z,1011.99
2018-07-03T10:05:48.913Z,1011.94
2018-07-03T10:06:48.897Z,1011.90
2018-07-03T10:07:48.871Z,1011.94
2018-07-03T10:08:48.861Z,1011.94
2018-07-03T10:09:48.825Z,1011.93
2018-07-03T10:10:48.815Z,1011.95
2018-07-03T10:11:48.830Z,1011.97
2018-07-03T10:12:48.805Z,1011.97
2018-07-03T10:13:48.749Z,1011.96
2018-07-03T10:14:48.761Z,1011.93
2018-07-03T10:15:48.709Z,1011.90
2018-07-03T10:16:48.695Z,1011.96
2018-07-03T10:17:48.674Z,1011.94
2018-07-03T10:18:48.733Z,1011.99
2018-07-03T10:19:48.627Z,1011.96
2018-07-03T10:20:48.630Z,1011.98
2018-07-03T10:21:48.584Z,1011.96
2018-07-03T10:22:48.567Z,1011.99
2018-07-03T10:23:48.599Z,1011.98
2018-07-03T10:24:48.530Z,1012.01
2018-07-03T10:25:48.515Z,1011.98
2018-07-03T10:26:48.541Z,1012.01
2018-07-03T10:27:48.542Z,1011.94
2018-07-03T10:28:48.487Z,1011.95
2018-07-03T10:29:48.433Z,1011.98
2018-07-03T10:30:48.448Z,1011.95
2018-07-03T10:31:48.409Z,1012.00
2018-07-03T10:32:48.451Z,1011.97
2018-07-03T10:33:48.348Z,1011.96
2018-07-03T10:34:48.329Z,1011.92
2018-07-03T10:35:48.352Z,1011.88
2018-07-03T10:36:48.295Z,1011.95
2018-07-03T10:37:48.286Z,1011.95
2018-07-03T10:38:48.262Z,1011.93
2018-07-03T10:39:48.236Z,1011.92
2018-07-03T10:40:48.218Z,1011.88
2018-07-03T10:41:48.191Z,1011.86
2018-07-03T10:42:48.172Z,1011.86
2018-07-03T10:43:48.155Z,1011.88
2018-07-03T10:44:48.151Z,1011.83
2018-07-03T10:45:48.125Z,1011.85
2018-07-03T10:46:48.118Z,1011.85
2018-07-03T10:47:48.077Z,1011.83
2018-07-03T10:48:48.103Z,1011.86
2018-07-03T10:49:48.046Z,1011.86
2018-07-03T10:50:48.025Z,1011.81
2018-07-03T10:51:48.003Z,1011.85
2018-07-03T10:52:47.987Z,1011.81
2018-07-03T10:53:47.969Z,1011.79
2018-07-03T10:54:47.944Z,1011.80
2018-07-03T10:55:47.976Z,1011.80
2018-07-03T10:56:47.907Z,1011.78
2018-07-03T10:57:47.886Z,1011.81
2018-07-03T10:58:47.875Z,1011.78
2018-07-03T10:59:47.888Z,1011.77
2018-07-03T11:00:47.830Z,1011.78
2018-07-03T11:01:47.840Z,1011.78
2018-07-03T11:02:47.799Z,1011.76
2018-07-03T11:03:47.774Z,1011.74
2018-07-03T11:04:47.755Z,1011.71
2018-07-03T11:05:47.772Z,1011.78
2018-07-03T11:06:47.713Z,1011.75
2018-07-03T11:07:47.705Z,1011.76
2018-07-03T11:08:47.681Z,1011.78
2018-07-03T11:09:47.662Z,1011.76
2018-07-03T11:10:47.643Z,1011.76
2018-07-03T11:11:47.635Z,1011.75
2018-07-03T11:12:47.597Z,1011.76
2018-07-03T11:13:47.642Z,1011.73
2018-07-03T11:14:47.560Z,1011.76
2018-07-03T11:15:47.535Z,1011.74
2018-07-03T11:16:47.527Z,1011.74
2018-07-03T11:17:47.517Z,1011.71
2018-07-03T11:18:47.549Z,1011.70
2018-07-03T11:19:47.532Z,1011.76
2018-07-03T11:20:47.450Z,1011.73
2018-07-03T11:21:47.427Z,1011.68
2018-07-03T11:22:47.443Z,1011.69
2018-07-03T11:23:47.400Z,1011.68
2018-07-03T11:24:47.370Z,1011.68
2018-07-03T11:25:47.394Z,1011.68
2018-07-03T11:26:47.333Z,1011.68
2018-07-03T11:27:47.309Z,1011.67
2018-07-03T11:28:47.296Z,1011.69
2018-07-03T11:29:47.291Z,1011.61
2018-07-03T11:30:47.266Z,1011.60
2018-07-03T11:31:47.242Z,1011.62
2018-07-03T11:32:47.227Z,1011.58
2018-07-03T11:33:47.228Z,1011.58
2018-07-03T11:34:47.187Z,1011.57
2018-07-03T11:35:47.182Z,1011.57
2018-07-03T11:36:47.147Z,1011.59
2018-07-03T11:37:47.208Z,1011.58
2018-07-03T11:38:47.109Z,1011.56
2018-07-03T11:39:47.102Z,1011.52
2018-07-03T11:40:47.078Z,1011.55
2018-07-03T11:41:47.064Z,1011.53
2018-07-03T11:42:47.037Z,1011.55
2018-07-03T11:43:47.018Z,1011.55
2018-07-03T11:44:47.023Z,1011.57
2018-07-03T11:45:46.993Z,1011.52
2018-07-03T11:46:47.017Z,1011.58
2018-07-03T11:47:46.949Z,1011.58
2018-07-03T11:48:46.933Z,1011.58
2018-07-03T11:49:46.929Z,1011.56
2018-07-03T11:50:46.899Z,1011.59
2018-07-03T11:51:46.900Z,1011.56
2018-07-03T11:52:46.875Z,1011.54
2018-07-03T11:53:46.859Z,1011.56
2018-07-03T11:54:46.873Z,1011.51
2018-07-03T11:55:46.827Z,1011.52
2018-07-03T11:56:46.799Z,1011.56
2018-07-03T11:57:46.790Z,1011.59
2018-07-03T11:58:46.788Z,1011.56
2018-07-03T11:59:46.772Z,1011.51
2018-07-03T12:00:46.746Z,1011.48
2018-07-03T12:01:46.800Z,1011.51
2018-07-03T12:02:46.728Z,1011.53
2018-07-03T12:03:46.710Z,1011.46
2018-07-03T12:04:46.686Z,1011.46
2018-07-03T12:05:46.667Z,1011.49
2018-07-03T12:06:46.663Z,1011.53
2018-07-03T12:07:46.652Z,1011.51
2018-07-03T12:08:46.651Z,1011.53
2018-07-03T12:09:46.610Z,1011.49
2018-07-03T12:10:46.606Z,1011.45
2018-07-03T12:11:46.588Z,1011.43
2018-07-03T12:12:46.578Z,1011.43
2018-07-03T12:13:46.561Z,1011.41
2018-07-03T12:14:46.546Z,1011.42
2018-07-03T12:15:46.534Z,1011.41
2018-07-03T12:16:46.528Z,1011.37
2018-07-03T12:17:46.505Z,1011.38
2018-07-03T12:18:46.492Z,1011.39
2018-07-03T12:19:46.506Z,1011.38
2018-07-03T12:20:46.473Z,1011.39
2018-07-03T12:21:46.457Z,1011.34
2018-07-03T12:22:46.437Z,1011.36
2018-07-03T12:23:46.427Z,1011.38
2018-07-03T12:24:46.410Z,1011.34
2018-07-03T12:25:46.406Z,1011.32
2018-07-03T12:26:46.396Z,1011.35
2018-07-03T12:27:46.391Z,1011.32
2018-07-03T12:28:46.372Z,1011.30
2018-07-03T12:29:46.340Z,1011.31
2018-07-03T12:30:46.339Z,1011.30
2018-07-03T12:31:46.342Z,1011.35
2018-07-03T12:32:46.344Z,1011.34
2018-07-03T12:33:46.298Z,1011.37
2018-07-03T12:34:46.285Z,1011.38
2018-07-03T12:35:46.285Z,1011.38